sensor_id;sensor_type;location;lat;lon;timestamp;temperature;humidity
5392;DHT22;2719;53.624;9.786;2022-09-23T00:01:52;13.50;99.90
5392;DHT22;2719;53.624;9.786;2022-09-23T00:04:19;13.40;99.90
5392;DHT22;2719;53.624;9.786;2022-09-23T00:06:46;13.40;99.90
5392;DHT22;2719;53.624;9.786;2022-09-23T00:09:14;13.40;99.90
5392;DHT22;2719;53.624;9.786;2022-09-23T00:11:40;13.40;99.90
5392;DHT22;2719;53.624;9.786;2022-09-23T00:14:08;13.30;99.90
5392;DHT22;2719;53.624;9.786;2022-09-23T00:16:35;13.30;99.90
5392;DHT22;2719;53.624;9.786;2022-09-23T00:19:03;13.30;99.90
5392;DHT22;2719;53.624;9.786;2022-09-23T00:21:30;13.20;99.90
5392;DHT22;2719;53.624;9.786;2022-09-23T00:23:56;13.20;99.90
5392;DHT22;2719;53.624;9.786;2022-09-23T00:26:24;13.20;99.90
5392;DHT22;2719;53.624;9.786;2022-09-23T00:28:52;13.20;99.90
5392;DHT22;2719;53.624;9.786;2022-09-23T00:31:21;13.20;99.90
5392;DHT22;2719;53.624;9.786;2022-09-23T00:33:52;13.10;99.90
5392;DHT22;2719;53.624;9.786;2022-09-23T00:36:19;13.10;99.90
5392;DHT22;2719;53.624;9.786;2022-09-23T00:38:45;13.10;99.90
5392;DHT22;2719;53.624;9.786;2022-09-23T00:41:12;13.10;99.90
5392;DHT22;2719;53.624;9.786;2022-09-23T00:43:43;13.10;99.90
5392;DHT22;2719;53.624;9.786;2022-09-23T00:46:13;13.10;99.90
5392;DHT22;2719;53.624;9.786;2022-09-23T00:48:42;13.10;99.90
5392;DHT22;2719;53.624;9.786;2022-09-23T00:51:12;13.00;99.90
5392;DHT22;2719;53.624;9.786;2022-09-23T00:53:42;13.00;99.90
5392;DHT22;2719;53.624;9.786;2022-09-23T00:56:10;13.00;99.90
5392;DHT22;2719;53.624;9.786;2022-09-23T00:58:41;13.00;99.90
5392;DHT22;2719;53.624;9.786;2022-09-23T01:01:08;12.90;99.90
5392;DHT22;2719;53.624;9.786;2022-09-23T01:03:35;12.90;99.90
5392;DHT22;2719;53.624;9.786;2022-09-23T01:06:03;12.90;99.90
5392;DHT22;2719;53.624;9.786;2022-09-23T01:08:30;12.80;99.90
5392;DHT22;2719;53.624;9.786;2022-09-23T01:11:04;12.80;99.90
5392;DHT22;2719;53.624;9.786;2022-09-23T01:13:40;12.80;99.90
5392;DHT22;2719;53.624;9.786;2022-09-23T01:16:17;12.80;99.90
5392;DHT22;2719;53.624;9.786;2022-09-23T01:18:51;12.70;99.90
5392;DHT22;2719;53.624;9.786;2022-09-23T01:21:28;12.70;99.90
5392;DHT22;2719;53.624;9.786;2022-09-23T01:27:30;12.60;99.90
5392;DHT22;2719;53.624;9.786;2022-09-23T01:30:10;12.60;99.90
5392;DHT22;2719;53.624;9.786;2022-09-23T01:32:55;12.60;99.90
5392;DHT22;2719;53.624;9.786;2022-09-23T01:35:28;12.50;99.90
5392;DHT22;2719;53.624;9.786;2022-09-23T01:38:06;12.50;99.90
5392;DHT22;2719;53.624;9.786;2022-09-23T01:40:46;12.40;99.90
5392;DHT22;2719;53.624;9.786;2022-09-23T01:43:18;12.50;99.90
5392;DHT22;2719;53.624;9.786;2022-09-23T01:45:47;12.40;99.90
5392;DHT22;2719;53.624;9.786;2022-09-23T01:48:21;12.40;99.90
5392;DHT22;2719;53.624;9.786;2022-09-23T01:50:51;12.40;99.90
5392;DHT22;2719;53.624;9.786;2022-09-23T01:53:26;12.40;99.90
5392;DHT22;2719;53.624;9.786;2022-09-23T01:55:56;12.40;99.90
5392;DHT22;2719;53.624;9.786;2022-09-23T01:58:28;12.40;99.90
5392;DHT22;2719;53.624;9.786;2022-09-23T02:00:59;12.30;99.90
5392;DHT22;2719;53.624;9.786;2022-09-23T02:03:31;12.30;99.90
5392;DHT22;2719;53.624;9.786;2022-09-23T02:06:02;12.30;99.90
5392;DHT22;2719;53.624;9.786;2022-09-23T02:08:33;12.30;99.90
5392;DHT22;2719;53.624;9.786;2022-09-23T02:11:05;12.30;99.90
5392;DHT22;2719;53.624;9.786;2022-09-23T02:13:38;12.30;99.90
5392;DHT22;2719;53.624;9.786;2022-09-23T02:16:09;12.20;99.90
5392;DHT22;2719;53.624;9.786;2022-09-23T02:18:44;12.20;99.90
5392;DHT22;2719;53.624;9.786;2022-09-23T02:21:14;12.20;99.90
5392;DHT22;2719;53.624;9.786;2022-09-23T02:23:44;12.20;99.90
5392;DHT22;2719;53.624;9.786;2022-09-23T02:26:16;12.20;99.90
5392;DHT22;2719;53.624;9.786;2022-09-23T02:28:51;12.10;99.90
5392;DHT22;2719;53.624;9.786;2022-09-23T02:31:26;12.10;99.90
5392;DHT22;2719;53.624;9.786;2022-09-23T02:33:59;12.10;99.90
5392;DHT22;2719;53.624;9.786;2022-09-23T02:36:29;12.10;99.90
5392;DHT22;2719;53.624;9.786;2022-09-23T02:38:59;12.00;99.90
5392;DHT22;2719;53.624;9.786;2022-09-23T02:41:31;12.00;99.90
5392;DHT22;2719;53.624;9.786;2022-09-23T02:44:04;12.00;99.90
5392;DHT22;2719;53.624;9.786;2022-09-23T02:46:32;12.00;99.90
5392;DHT22;2719;53.624;9.786;2022-09-23T02:49:04;12.00;99.90
5392;DHT22;2719;53.624;9.786;2022-09-23T02:51:36;12.00;99.90
5392;DHT22;2719;53.624;9.786;2022-09-23T02:54:04;11.90;99.90
5392;DHT22;2719;53.624;9.786;2022-09-23T02:56:32;11.90;99.90
5392;DHT22;2719;53.624;9.786;2022-09-23T02:58:59;11.90;99.90
5392;DHT22;2719;53.624;9.786;2022-09-23T03:01:35;11.80;99.90
5392;DHT22;2719;53.624;9.786;2022-09-23T03:04:10;11.90;99.90
5392;DHT22;2719;53.624;9.786;2022-09-23T03:06:48;11.90;99.90
5392;DHT22;2719;53.624;9.786;2022-09-23T03:09:21;11.80;99.90
5392;DHT22;2719;53.624;9.786;2022-09-23T03:11:57;11.80;99.90
5392;DHT22;2719;53.624;9.786;2022-09-23T03:14:29;11.80;99.90
5392;DHT22;2719;53.624;9.786;2022-09-23T03:17:02;11.80;99.90
5392;DHT22;2719;53.624;9.786;2022-09-23T03:19:35;11.80;99.90
5392;DHT22;2719;53.624;9.786;2022-09-23T03:22:08;11.70;99.90
5392;DHT22;2719;53.624;9.786;2022-09-23T03:24:38;11.80;99.90
5392;DHT22;2719;53.624;9.786;2022-09-23T03:27:09;11.80;99.90
5392;DHT22;2719;53.624;9.786;2022-09-23T03:29:38;11.80;99.90
5392;DHT22;2719;53.624;9.786;2022-09-23T03:32:06;11.70;99.90
5392;DHT22;2719;53.624;9.786;2022-09-23T03:34:35;11.70;99.90
5392;DHT22;2719;53.624;9.786;2022-09-23T03:37:08;11.70;99.90
5392;DHT22;2719;53.624;9.786;2022-09-23T03:39:37;11.70;99.90
5392;DHT22;2719;53.624;9.786;2022-09-23T03:42:07;11.70;99.90
5392;DHT22;2719;53.624;9.786;2022-09-23T03:44:37;11.70;99.90
5392;DHT22;2719;53.624;9.786;2022-09-23T03:47:07;11.60;99.90
5392;DHT22;2719;53.624;9.786;2022-09-23T03:49:37;11.60;99.90
5392;DHT22;2719;53.624;9.786;2022-09-23T03:52:05;11.60;99.90
5392;DHT22;2719;53.624;9.786;2022-09-23T03:54:32;11.60;99.90
5392;DHT22;2719;53.624;9.786;2022-09-23T03:57:00;11.60;99.90
5392;DHT22;2719;53.624;9.786;2022-09-23T03:59:28;11.60;99.90
5392;DHT22;2719;53.624;9.786;2022-09-23T04:01:56;11.50;99.90
5392;DHT22;2719;53.624;9.786;2022-09-23T04:04:24;11.50;99.90
5392;DHT22;2719;53.624;9.786;2022-09-23T04:06:52;11.50;99.90
5392;DHT22;2719;53.624;9.786;2022-09-23T04:09:18;11.60;99.90
5392;DHT22;2719;53.624;9.786;2022-09-23T04:11:47;11.50;99.90
5392;DHT22;2719;53.624;9.786;2022-09-23T04:14:14;11.50;99.90
5392;DHT22;2719;53.624;9.786;2022-09-23T04:16:41;11.50;99.90
5392;DHT22;2719;53.624;9.786;2022-09-23T04:19:08;11.50;99.90
5392;DHT22;2719;53.624;9.786;2022-09-23T04:21:35;11.50;99.90
5392;DHT22;2719;53.624;9.786;2022-09-23T04:24:04;11.50;99.90
5392;DHT22;2719;53.624;9.786;2022-09-23T04:26:31;11.50;99.90
5392;DHT22;2719;53.624;9.786;2022-09-23T04:28:58;11.50;99.90
5392;DHT22;2719;53.624;9.786;2022-09-23T04:31:25;11.50;99.90
5392;DHT22;2719;53.624;9.786;2022-09-23T04:33:53;11.50;99.90
5392;DHT22;2719;53.624;9.786;2022-09-23T04:36:20;11.50;99.90
5392;DHT22;2719;53.624;9.786;2022-09-23T04:38:48;11.40;99.90
5392;DHT22;2719;53.624;9.786;2022-09-23T04:41:17;11.50;99.90
5392;DHT22;2719;53.624;9.786;2022-09-23T04:43:45;11.50;99.90
5392;DHT22;2719;53.624;9.786;2022-09-23T04:46:14;11.50;99.90
5392;DHT22;2719;53.624;9.786;2022-09-23T04:48:41;11.50;99.90
5392;DHT22;2719;53.624;9.786;2022-09-23T04:51:09;11.50;99.90
5392;DHT22;2719;53.624;9.786;2022-09-23T04:53:38;11.40;99.90
5392;DHT22;2719;53.624;9.786;2022-09-23T04:56:06;11.50;99.90
5392;DHT22;2719;53.624;9.786;2022-09-23T04:58:36;11.50;99.90
5392;DHT22;2719;53.624;9.786;2022-09-23T05:01:12;11.50;99.90
5392;DHT22;2719;53.624;9.786;2022-09-23T05:03:40;11.50;99.90
5392;DHT22;2719;53.624;9.786;2022-09-23T05:06:07;11.50;99.90
5392;DHT22;2719;53.624;9.786;2022-09-23T05:08:35;11.50;99.90
5392;DHT22;2719;53.624;9.786;2022-09-23T05:11:03;11.50;99.90
5392;DHT22;2719;53.624;9.786;2022-09-23T05:13:30;11.50;99.90
5392;DHT22;2719;53.624;9.786;2022-09-23T05:16:01;11.50;99.90
5392;DHT22;2719;53.624;9.786;2022-09-23T05:18:30;11.40;99.90
5392;DHT22;2719;53.624;9.786;2022-09-23T05:20:57;11.50;99.90
5392;DHT22;2719;53.624;9.786;2022-09-23T05:23:24;11.40;99.90
5392;DHT22;2719;53.624;9.786;2022-09-23T05:25:56;11.50;99.90
5392;DHT22;2719;53.624;9.786;2022-09-23T05:28:23;11.40;99.90
5392;DHT22;2719;53.624;9.786;2022-09-23T05:30:51;11.50;99.90
5392;DHT22;2719;53.624;9.786;2022-09-23T05:33:19;11.40;99.90
5392;DHT22;2719;53.624;9.786;2022-09-23T05:35:46;11.40;99.90
5392;DHT22;2719;53.624;9.786;2022-09-23T05:38:13;11.40;99.90
5392;DHT22;2719;53.624;9.786;2022-09-23T05:40:42;11.40;99.90
5392;DHT22;2719;53.624;9.786;2022-09-23T05:43:08;11.40;99.90
5392;DHT22;2719;53.624;9.786;2022-09-23T05:45:35;11.40;99.90
5392;DHT22;2719;53.624;9.786;2022-09-23T05:48:02;11.40;99.90
5392;DHT22;2719;53.624;9.786;2022-09-23T05:50:30;11.40;99.90
5392;DHT22;2719;53.624;9.786;2022-09-23T05:52:57;11.40;99.90
5392;DHT22;2719;53.624;9.786;2022-09-23T05:55:24;11.40;99.90
5392;DHT22;2719;53.624;9.786;2022-09-23T05:57:51;11.40;99.90
5392;DHT22;2719;53.624;9.786;2022-09-23T06:00:18;11.40;99.90
5392;DHT22;2719;53.624;9.786;2022-09-23T06:02:46;11.40;99.90
5392;DHT22;2719;53.624;9.786;2022-09-23T06:05:13;11.40;99.90
5392;DHT22;2719;53.624;9.786;2022-09-23T06:07:41;11.40;99.90
5392;DHT22;2719;53.624;9.786;2022-09-23T06:10:09;11.40;99.90
5392;DHT22;2719;53.624;9.786;2022-09-23T06:12:36;11.40;99.90
5392;DHT22;2719;53.624;9.786;2022-09-23T06:15:03;11.40;99.90
5392;DHT22;2719;53.624;9.786;2022-09-23T06:17:30;11.40;99.90
5392;DHT22;2719;53.624;9.786;2022-09-23T06:19:56;11.40;99.90
5392;DHT22;2719;53.624;9.786;2022-09-23T06:22:23;11.40;99.90
5392;DHT22;2719;53.624;9.786;2022-09-23T06:24:52;11.40;99.90
5392;DHT22;2719;53.624;9.786;2022-09-23T06:27:18;11.40;99.90
5392;DHT22;2719;53.624;9.786;2022-09-23T06:29:45;11.50;99.90
5392;DHT22;2719;53.624;9.786;2022-09-23T06:32:12;11.50;99.90
5392;DHT22;2719;53.624;9.786;2022-09-23T06:34:38;11.50;99.90
5392;DHT22;2719;53.624;9.786;2022-09-23T06:37:06;11.50;99.90
5392;DHT22;2719;53.624;9.786;2022-09-23T06:39:33;11.40;99.90
5392;DHT22;2719;53.624;9.786;2022-09-23T06:42:01;11.40;99.90
5392;DHT22;2719;53.624;9.786;2022-09-23T06:44:28;11.50;99.90
5392;DHT22;2719;53.624;9.786;2022-09-23T06:46:54;11.50;99.90
5392;DHT22;2719;53.624;9.786;2022-09-23T06:49:21;11.50;99.90
5392;DHT22;2719;53.624;9.786;2022-09-23T06:51:48;11.50;99.90
5392;DHT22;2719;53.624;9.786;2022-09-23T06:54:15;11.50;99.90
5392;DHT22;2719;53.624;9.786;2022-09-23T06:56:42;11.50;99.90
5392;DHT22;2719;53.624;9.786;2022-09-23T06:59:11;11.60;99.90
5392;DHT22;2719;53.624;9.786;2022-09-23T07:01:41;11.70;99.90
5392;DHT22;2719;53.624;9.786;2022-09-23T07:04:09;11.70;99.90
5392;DHT22;2719;53.624;9.786;2022-09-23T07:06:36;11.80;99.90
5392;DHT22;2719;53.624;9.786;2022-09-23T07:09:04;12.00;99.90
5392;DHT22;2719;53.624;9.786;2022-09-23T07:11:31;12.10;99.90
5392;DHT22;2719;53.624;9.786;2022-09-23T07:13:58;12.10;99.90
5392;DHT22;2719;53.624;9.786;2022-09-23T07:16:26;12.30;99.90
5392;DHT22;2719;53.624;9.786;2022-09-23T07:18:53;12.40;99.90
5392;DHT22;2719;53.624;9.786;2022-09-23T07:21:20;12.50;99.90
5392;DHT22;2719;53.624;9.786;2022-09-23T07:23:48;12.60;99.90
5392;DHT22;2719;53.624;9.786;2022-09-23T07:26:16;12.80;99.90
5392;DHT22;2719;53.624;9.786;2022-09-23T07:28:44;12.80;99.90
5392;DHT22;2719;53.624;9.786;2022-09-23T07:31:14;13.00;99.90
5392;DHT22;2719;53.624;9.786;2022-09-23T07:33:43;13.10;99.90
5392;DHT22;2719;53.624;9.786;2022-09-23T07:36:11;13.20;99.90
5392;DHT22;2719;53.624;9.786;2022-09-23T07:38:38;13.30;99.90
5392;DHT22;2719;53.624;9.786;2022-09-23T07:41:06;13.30;99.90
5392;DHT22;2719;53.624;9.786;2022-09-23T07:43:34;13.30;99.90
5392;DHT22;2719;53.624;9.786;2022-09-23T07:46:03;13.40;99.90
5392;DHT22;2719;53.624;9.786;2022-09-23T07:48:33;13.40;99.90
5392;DHT22;2719;53.624;9.786;2022-09-23T07:51:05;13.40;99.90
5392;DHT22;2719;53.624;9.786;2022-09-23T07:53:32;13.50;99.90
5392;DHT22;2719;53.624;9.786;2022-09-23T07:55:59;13.40;99.90
5392;DHT22;2719;53.624;9.786;2022-09-23T07:58:25;13.40;99.90
5392;DHT22;2719;53.624;9.786;2022-09-23T08:00:52;13.50;99.90
5392;DHT22;2719;53.624;9.786;2022-09-23T08:03:19;13.50;99.90
5392;DHT22;2719;53.624;9.786;2022-09-23T08:05:46;13.50;99.90
5392;DHT22;2719;53.624;9.786;2022-09-23T08:08:14;13.40;99.90
5392;DHT22;2719;53.624;9.786;2022-09-23T08:10:41;13.40;99.90
5392;DHT22;2719;53.624;9.786;2022-09-23T08:13:08;13.30;99.90
5392;DHT22;2719;53.624;9.786;2022-09-23T08:15:35;13.50;99.90
5392;DHT22;2719;53.624;9.786;2022-09-23T08:18:02;13.50;99.90
5392;DHT22;2719;53.624;9.786;2022-09-23T08:20:29;13.50;99.90
5392;DHT22;2719;53.624;9.786;2022-09-23T08:23:12;13.60;99.90
5392;DHT22;2719;53.624;9.786;2022-09-23T08:25:41;13.60;99.90
5392;DHT22;2719;53.624;9.786;2022-09-23T08:28:09;13.60;99.90
5392;DHT22;2719;53.624;9.786;2022-09-23T08:30:41;13.60;99.90
5392;DHT22;2719;53.624;9.786;2022-09-23T08:33:08;13.60;99.90
5392;DHT22;2719;53.624;9.786;2022-09-23T08:35:35;13.70;99.90
5392;DHT22;2719;53.624;9.786;2022-09-23T08:38:02;13.80;99.90
5392;DHT22;2719;53.624;9.786;2022-09-23T08:40:29;13.80;99.90
5392;DHT22;2719;53.624;9.786;2022-09-23T08:42:59;13.90;99.90
5392;DHT22;2719;53.624;9.786;2022-09-23T08:45:26;14.00;99.90
5392;DHT22;2719;53.624;9.786;2022-09-23T08:47:56;14.00;99.90
5392;DHT22;2719;53.624;9.786;2022-09-23T08:50:27;14.10;99.90
5392;DHT22;2719;53.624;9.786;2022-09-23T08:52:59;14.20;99.90
5392;DHT22;2719;53.624;9.786;2022-09-23T08:55:32;14.20;99.90
5392;DHT22;2719;53.624;9.786;2022-09-23T08:58:06;14.40;99.90
5392;DHT22;2719;53.624;9.786;2022-09-23T09:00:39;14.50;99.90
5392;DHT22;2719;53.624;9.786;2022-09-23T09:03:18;14.40;99.90
5392;DHT22;2719;53.624;9.786;2022-09-23T09:05:47;14.60;99.90
5392;DHT22;2719;53.624;9.786;2022-09-23T09:08:19;14.70;99.90
5392;DHT22;2719;53.624;9.786;2022-09-23T09:10:52;14.70;99.90
5392;DHT22;2719;53.624;9.786;2022-09-23T09:13:29;14.60;99.90
5392;DHT22;2719;53.624;9.786;2022-09-23T09:16:11;14.70;99.90
5392;DHT22;2719;53.624;9.786;2022-09-23T09:18:49;14.80;99.90
5392;DHT22;2719;53.624;9.786;2022-09-23T09:21:18;14.80;99.90
5392;DHT22;2719;53.624;9.786;2022-09-23T09:23:52;14.80;99.90
5392;DHT22;2719;53.624;9.786;2022-09-23T09:26:21;14.90;99.90
5392;DHT22;2719;53.624;9.786;2022-09-23T09:28:53;14.90;99.90
5392;DHT22;2719;53.624;9.786;2022-09-23T09:31:26;15.00;99.90
5392;DHT22;2719;53.624;9.786;2022-09-23T09:33:59;14.90;99.90
5392;DHT22;2719;53.624;9.786;2022-09-23T09:36:34;15.10;99.90
5392;DHT22;2719;53.624;9.786;2022-09-23T09:39:03;15.10;99.90
5392;DHT22;2719;53.624;9.786;2022-09-23T09:41:29;15.10;99.90
5392;DHT22;2719;53.624;9.786;2022-09-23T09:43:59;15.20;99.90
5392;DHT22;2719;53.624;9.786;2022-09-23T09:46:51;15.20;99.90
5392;DHT22;2719;53.624;9.786;2022-09-23T09:49:26;15.40;99.90
5392;DHT22;2719;53.624;9.786;2022-09-23T09:52:12;15.50;99.90
5392;DHT22;2719;53.624;9.786;2022-09-23T09:54:39;15.50;99.90
5392;DHT22;2719;53.624;9.786;2022-09-23T09:57:15;15.50;99.90
5392;DHT22;2719;53.624;9.786;2022-09-23T09:59:44;15.60;99.90
5392;DHT22;2719;53.624;9.786;2022-09-23T10:02:12;15.50;99.90
5392;DHT22;2719;53.624;9.786;2022-09-23T10:04:54;15.60;99.90
5392;DHT22;2719;53.624;9.786;2022-09-23T10:07:24;15.70;99.90
5392;DHT22;2719;53.624;9.786;2022-09-23T10:09:51;15.80;99.90
5392;DHT22;2719;53.624;9.786;2022-09-23T10:12:19;15.80;99.90
5392;DHT22;2719;53.624;9.786;2022-09-23T10:14:49;15.90;99.90
5392;DHT22;2719;53.624;9.786;2022-09-23T10:17:19;16.00;99.90
5392;DHT22;2719;53.624;9.786;2022-09-23T10:19:48;16.00;99.90
5392;DHT22;2719;53.624;9.786;2022-09-23T10:22:21;16.00;99.90
5392;DHT22;2719;53.624;9.786;2022-09-23T10:24:52;16.10;99.90
5392;DHT22;2719;53.624;9.786;2022-09-23T10:27:27;16.10;99.90
5392;DHT22;2719;53.624;9.786;2022-09-23T10:29:58;16.20;99.90
5392;DHT22;2719;53.624;9.786;2022-09-23T10:32:27;16.20;99.90
5392;DHT22;2719;53.624;9.786;2022-09-23T10:34:57;16.30;99.90
5392;DHT22;2719;53.624;9.786;2022-09-23T10:37:31;16.30;99.90
5392;DHT22;2719;53.624;9.786;2022-09-23T10:39:59;16.40;99.90
5392;DHT22;2719;53.624;9.786;2022-09-23T10:42:53;16.40;99.90
5392;DHT22;2719;53.624;9.786;2022-09-23T10:45:46;16.40;99.90
5392;DHT22;2719;53.624;9.786;2022-09-23T10:48:39;16.40;99.90
5392;DHT22;2719;53.624;9.786;2022-09-23T10:51:14;16.50;99.90
5392;DHT22;2719;53.624;9.786;2022-09-23T10:53:55;16.50;99.90
5392;DHT22;2719;53.624;9.786;2022-09-23T10:56:31;16.60;99.90
5392;DHT22;2719;53.624;9.786;2022-09-23T10:59:17;16.60;99.90
5392;DHT22;2719;53.624;9.786;2022-09-23T11:01:57;16.60;99.90
5392;DHT22;2719;53.624;9.786;2022-09-23T11:04:53;16.60;99.90
5392;DHT22;2719;53.624;9.786;2022-09-23T11:07:26;16.70;99.90
5392;DHT22;2719;53.624;9.786;2022-09-23T11:10:22;16.70;99.90
5392;DHT22;2719;53.624;9.786;2022-09-23T11:12:56;16.80;99.90
5392;DHT22;2719;53.624;9.786;2022-09-23T11:15:34;16.80;99.90
5392;DHT22;2719;53.624;9.786;2022-09-23T11:18:23;16.80;99.90
5392;DHT22;2719;53.624;9.786;2022-09-23T11:21:01;16.80;99.90
5392;DHT22;2719;53.624;9.786;2022-09-23T11:23:39;16.90;99.90
5392;DHT22;2719;53.624;9.786;2022-09-23T11:26:18;16.80;99.90
5392;DHT22;2719;53.624;9.786;2022-09-23T11:29:29;16.80;99.90
5392;DHT22;2719;53.624;9.786;2022-09-23T11:32:11;16.80;99.90
5392;DHT22;2719;53.624;9.786;2022-09-23T11:35:00;16.80;99.90
5392;DHT22;2719;53.624;9.786;2022-09-23T11:37:30;16.90;99.90
5392;DHT22;2719;53.624;9.786;2022-09-23T11:40:01;16.90;99.80
5392;DHT22;2719;53.624;9.786;2022-09-23T11:42:33;16.90;99.90
5392;DHT22;2719;53.624;9.786;2022-09-23T11:45:05;16.90;99.90
5392;DHT22;2719;53.624;9.786;2022-09-23T11:47:36;17.00;99.90
5392;DHT22;2719;53.624;9.786;2022-09-23T11:50:16;17.10;99.90
5392;DHT22;2719;53.624;9.786;2022-09-23T11:52:46;17.10;99.90
5392;DHT22;2719;53.624;9.786;2022-09-23T11:55:17;17.10;99.90
5392;DHT22;2719;53.624;9.786;2022-09-23T11:57:48;17.10;99.90
5392;DHT22;2719;53.624;9.786;2022-09-23T12:00:18;17.20;99.90
5392;DHT22;2719;53.624;9.786;2022-09-23T12:02:53;17.20;99.90
5392;DHT22;2719;53.624;9.786;2022-09-23T12:05:26;17.30;99.40
5392;DHT22;2719;53.624;9.786;2022-09-23T12:07:58;17.30;98.90
5392;DHT22;2719;53.624;9.786;2022-09-23T12:10:39;17.40;99.90
5392;DHT22;2719;53.624;9.786;2022-09-23T12:13:12;17.50;99.30
5392;DHT22;2719;53.624;9.786;2022-09-23T12:15:50;17.50;98.00
5392;DHT22;2719;53.624;9.786;2022-09-23T12:18:34;17.60;98.00
5392;DHT22;2719;53.624;9.786;2022-09-23T12:21:27;17.60;97.30
5392;DHT22;2719;53.624;9.786;2022-09-23T12:24:08;17.60;96.70
5392;DHT22;2719;53.624;9.786;2022-09-23T12:26:40;17.60;97.00
5392;DHT22;2719;53.624;9.786;2022-09-23T12:29:12;17.60;97.40
5392;DHT22;2719;53.624;9.786;2022-09-23T12:31:40;17.60;97.60
5392;DHT22;2719;53.624;9.786;2022-09-23T12:34:20;17.70;97.20
5392;DHT22;2719;53.624;9.786;2022-09-23T12:36:49;17.70;97.60
5392;DHT22;2719;53.624;9.786;2022-09-23T12:39:19;17.80;97.70
5392;DHT22;2719;53.624;9.786;2022-09-23T12:41:56;17.80;97.10
5392;DHT22;2719;53.624;9.786;2022-09-23T12:44:38;17.80;97.30
5392;DHT22;2719;53.624;9.786;2022-09-23T12:47:37;17.80;96.40
5392;DHT22;2719;53.624;9.786;2022-09-23T12:56:21;17.80;96.10
5392;DHT22;2719;53.624;9.786;2022-09-23T12:59:26;17.80;97.60
5392;DHT22;2719;53.624;9.786;2022-09-23T13:01:53;17.90;97.50
5392;DHT22;2719;53.624;9.786;2022-09-23T13:04:29;17.90;96.00
5392;DHT22;2719;53.624;9.786;2022-09-23T13:07:15;17.90;95.00
5392;DHT22;2719;53.624;9.786;2022-09-23T13:09:46;17.90;96.20
5392;DHT22;2719;53.624;9.786;2022-09-23T13:12:18;17.90;95.30
5392;DHT22;2719;53.624;9.786;2022-09-23T13:14:48;17.90;95.90
5392;DHT22;2719;53.624;9.786;2022-09-23T13:17:24;17.90;96.20
5392;DHT22;2719;53.624;9.786;2022-09-23T13:20:01;17.90;96.00
5392;DHT22;2719;53.624;9.786;2022-09-23T13:22:41;17.90;95.00
5392;DHT22;2719;53.624;9.786;2022-09-23T13:25:16;17.90;95.20
5392;DHT22;2719;53.624;9.786;2022-09-23T13:27:48;18.00;96.30
5392;DHT22;2719;53.624;9.786;2022-09-23T13:30:18;18.00;95.70
5392;DHT22;2719;53.624;9.786;2022-09-23T13:32:49;18.00;96.50
5392;DHT22;2719;53.624;9.786;2022-09-23T13:35:24;18.00;95.50
5392;DHT22;2719;53.624;9.786;2022-09-23T13:37:51;18.00;96.30
5392;DHT22;2719;53.624;9.786;2022-09-23T13:40:21;18.00;95.80
5392;DHT22;2719;53.624;9.786;2022-09-23T13:42:53;18.00;95.50
5392;DHT22;2719;53.624;9.786;2022-09-23T13:45:23;18.00;96.80
5392;DHT22;2719;53.624;9.786;2022-09-23T13:47:52;18.00;96.40
5392;DHT22;2719;53.624;9.786;2022-09-23T13:50:21;18.00;95.10
5392;DHT22;2719;53.624;9.786;2022-09-23T13:52:51;18.00;95.70
5392;DHT22;2719;53.624;9.786;2022-09-23T13:55:30;18.00;96.10
5392;DHT22;2719;53.624;9.786;2022-09-23T13:58:03;18.00;95.60
5392;DHT22;2719;53.624;9.786;2022-09-23T14:00:33;18.00;95.70
5392;DHT22;2719;53.624;9.786;2022-09-23T14:03:01;18.00;95.10
5392;DHT22;2719;53.624;9.786;2022-09-23T14:05:32;18.00;95.30
5392;DHT22;2719;53.624;9.786;2022-09-23T14:08:00;18.10;95.80
5392;DHT22;2719;53.624;9.786;2022-09-23T14:10:27;18.10;95.60
5392;DHT22;2719;53.624;9.786;2022-09-23T14:12:56;18.00;95.00
5392;DHT22;2719;53.624;9.786;2022-09-23T14:15:25;18.10;95.70
5392;DHT22;2719;53.624;9.786;2022-09-23T14:17:53;18.00;95.40
5392;DHT22;2719;53.624;9.786;2022-09-23T14:20:23;18.00;95.50
5392;DHT22;2719;53.624;9.786;2022-09-23T14:23:03;18.10;96.20
5392;DHT22;2719;53.624;9.786;2022-09-23T14:25:30;18.00;96.00
5392;DHT22;2719;53.624;9.786;2022-09-23T14:27:57;18.00;96.50
5392;DHT22;2719;53.624;9.786;2022-09-23T14:30:25;18.00;96.90
5392;DHT22;2719;53.624;9.786;2022-09-23T14:32:52;18.00;96.50
5392;DHT22;2719;53.624;9.786;2022-09-23T14:35:20;18.00;96.40
5392;DHT22;2719;53.624;9.786;2022-09-23T14:37:52;18.00;96.20
5392;DHT22;2719;53.624;9.786;2022-09-23T14:40:48;18.00;96.80
5392;DHT22;2719;53.624;9.786;2022-09-23T14:43:19;18.00;96.10
5392;DHT22;2719;53.624;9.786;2022-09-23T14:45:52;17.90;96.50
5392;DHT22;2719;53.624;9.786;2022-09-23T14:48:22;18.00;96.80
5392;DHT22;2719;53.624;9.786;2022-09-23T14:50:53;18.00;96.50
5392;DHT22;2719;53.624;9.786;2022-09-23T14:53:36;18.00;96.30
5392;DHT22;2719;53.624;9.786;2022-09-23T14:56:13;18.00;96.70
5392;DHT22;2719;53.624;9.786;2022-09-23T14:58:42;18.00;96.50
5392;DHT22;2719;53.624;9.786;2022-09-23T15:01:35;18.00;96.70
5392;DHT22;2719;53.624;9.786;2022-09-23T15:04:14;17.90;96.70
5392;DHT22;2719;53.624;9.786;2022-09-23T15:06:45;17.90;97.20
5392;DHT22;2719;53.624;9.786;2022-09-23T15:09:18;17.80;97.00
5392;DHT22;2719;53.624;9.786;2022-09-23T15:11:46;17.80;97.60
5392;DHT22;2719;53.624;9.786;2022-09-23T15:14:13;17.70;96.80
5392;DHT22;2719;53.624;9.786;2022-09-23T15:16:41;17.80;97.30
5392;DHT22;2719;53.624;9.786;2022-09-23T15:19:15;17.70;97.50
5392;DHT22;2719;53.624;9.786;2022-09-23T15:21:45;17.70;97.70
5392;DHT22;2719;53.624;9.786;2022-09-23T15:24:40;17.70;98.40
5392;DHT22;2719;53.624;9.786;2022-09-23T15:27:31;17.70;98.20
5392;DHT22;2719;53.624;9.786;2022-09-23T15:30:11;17.70;98.50
5392;DHT22;2719;53.624;9.786;2022-09-23T15:32:44;17.70;98.00
5392;DHT22;2719;53.624;9.786;2022-09-23T15:35:12;17.70;98.00
5392;DHT22;2719;53.624;9.786;2022-09-23T15:37:40;17.70;98.60
5392;DHT22;2719;53.624;9.786;2022-09-23T15:40:14;17.70;98.60
5392;DHT22;2719;53.624;9.786;2022-09-23T15:42:44;17.70;99.00
5392;DHT22;2719;53.624;9.786;2022-09-23T15:45:17;17.70;98.70
5392;DHT22;2719;53.624;9.786;2022-09-23T15:47:47;17.70;99.00
5392;DHT22;2719;53.624;9.786;2022-09-23T15:50:14;17.70;99.30
5392;DHT22;2719;53.624;9.786;2022-09-23T15:52:42;17.70;99.10
5392;DHT22;2719;53.624;9.786;2022-09-23T15:55:16;17.70;99.00
5392;DHT22;2719;53.624;9.786;2022-09-23T15:57:48;17.60;99.00
5392;DHT22;2719;53.624;9.786;2022-09-23T16:00:15;17.60;99.40
5392;DHT22;2719;53.624;9.786;2022-09-23T16:02:43;17.70;99.50
5392;DHT22;2719;53.624;9.786;2022-09-23T16:05:17;17.60;99.20
5392;DHT22;2719;53.624;9.786;2022-09-23T16:07:46;17.60;99.50
5392;DHT22;2719;53.624;9.786;2022-09-23T16:10:17;17.60;99.90
5392;DHT22;2719;53.624;9.786;2022-09-23T16:12:44;17.60;99.90
5392;DHT22;2719;53.624;9.786;2022-09-23T16:15:12;17.60;99.90
5392;DHT22;2719;53.624;9.786;2022-09-23T16:17:40;17.60;99.90
5392;DHT22;2719;53.624;9.786;2022-09-23T16:20:08;17.50;99.50
5392;DHT22;2719;53.624;9.786;2022-09-23T16:22:36;17.50;99.90
5392;DHT22;2719;53.624;9.786;2022-09-23T16:25:04;17.50;99.90
5392;DHT22;2719;53.624;9.786;2022-09-23T16:27:30;17.50;99.90
5392;DHT22;2719;53.624;9.786;2022-09-23T16:29:58;17.50;99.90
5392;DHT22;2719;53.624;9.786;2022-09-23T16:32:25;17.50;99.90
5392;DHT22;2719;53.624;9.786;2022-09-23T16:34:52;17.50;99.90
5392;DHT22;2719;53.624;9.786;2022-09-23T16:37:18;17.50;99.90
5392;DHT22;2719;53.624;9.786;2022-09-23T16:39:48;17.50;99.90